BAW833 EIDW-EGLL
Flight info
| Callsign | BAW833 |
|---|---|
| Flight time | 0h 57m |
| Altitude | 35000 |
| Route | PESIT4E PESIT BAKUR ECCIT GUBJE GISOK TACQI FONZU ELRIP OTMET OTMET1H |
| Aircraft | A20N/M-SDGIJ1LRWXY/SB1 |
Departure
| Time | 2026-05-07 00:25 |
|---|---|
| Airport | Dublin Airport (EIDW) |
Arrival
| Time | 2026-05-07 01:22 |
|---|---|
| Airport | London Heathrow Airport (EGLL) |
| Time | Latitude | Longitude | Altitude | Speed | Heading |
|---|---|---|---|---|---|
| 2026-05-06 23:54 | 53.42865 | -6.24817 | 212 ft | 0 kts | 135° |
| 2026-05-07 00:09 | 53.42865 | -6.24818 | 212 ft | 0 kts | 135° |
| 2026-05-07 00:09 | 53.42873 | -6.24831 | 211 ft | 2 kts | 135° |
| 2026-05-07 00:10 | 53.42890 | -6.24858 | 211 ft | 3 kts | 136° |
| 2026-05-07 00:10 | 53.42911 | -6.24893 | 210 ft | 4 kts | 135° |
| 2026-05-07 00:10 | 53.42935 | -6.24933 | 209 ft | 5 kts | 135° |
| 2026-05-07 00:10 | 53.42947 | -6.24953 | 209 ft | 0 kts | 134° |
| 2026-05-07 00:15 | 53.42945 | -6.24951 | 209 ft | 3 kts | 134° |
| 2026-05-07 00:16 | 53.42917 | -6.24923 | 209 ft | 5 kts | 174° |
| 2026-05-07 00:16 | 53.42878 | -6.24953 | 209 ft | 7 kts | 219° |
| 2026-05-07 00:16 | 53.42831 | -6.25025 | 208 ft | 10 kts | 217° |
| 2026-05-07 00:16 | 53.42771 | -6.25105 | 208 ft | 10 kts | 225° |
| 2026-05-07 00:17 | 53.42723 | -6.25187 | 208 ft | 8 kts | 225° |
| 2026-05-07 00:17 | 53.42678 | -6.25262 | 208 ft | 9 kts | 226° |
| 2026-05-07 00:17 | 53.42626 | -6.25351 | 208 ft | 11 kts | 225° |
| 2026-05-07 00:17 | 53.42567 | -6.25451 | 208 ft | 12 kts | 225° |
| 2026-05-07 00:18 | 53.42503 | -6.25558 | 209 ft | 12 kts | 226° |
| 2026-05-07 00:18 | 53.42445 | -6.25659 | 211 ft | 12 kts | 225° |
| 2026-05-07 00:18 | 53.42384 | -6.25764 | 211 ft | 13 kts | 226° |
| 2026-05-07 00:18 | 53.42319 | -6.25878 | 212 ft | 13 kts | 226° |
| 2026-05-07 00:19 | 53.42270 | -6.26006 | 214 ft | 12 kts | 250° |
| 2026-05-07 00:19 | 53.42262 | -6.26157 | 214 ft | 13 kts | 275° |
| 2026-05-07 00:19 | 53.42271 | -6.26311 | 217 ft | 12 kts | 277° |
| 2026-05-07 00:19 | 53.42277 | -6.26447 | 220 ft | 11 kts | 273° |
| 2026-05-07 00:20 | 53.42284 | -6.26572 | 223 ft | 10 kts | 276° |
| 2026-05-07 00:20 | 53.42291 | -6.26685 | 224 ft | 10 kts | 276° |
| 2026-05-07 00:20 | 53.42300 | -6.26850 | 227 ft | 15 kts | 276° |
| 2026-05-07 00:20 | 53.42309 | -6.27034 | 228 ft | 16 kts | 276° |
| 2026-05-07 00:21 | 53.42319 | -6.27223 | 229 ft | 15 kts | 276° |
| 2026-05-07 00:21 | 53.42327 | -6.27400 | 231 ft | 15 kts | 276° |
| 2026-05-07 00:21 | 53.42338 | -6.27581 | 231 ft | 16 kts | 276° |
| 2026-05-07 00:21 | 53.42349 | -6.27767 | 233 ft | 15 kts | 276° |
| 2026-05-07 00:22 | 53.42359 | -6.27937 | 235 ft | 14 kts | 275° |
| 2026-05-07 00:22 | 53.42369 | -6.28108 | 237 ft | 14 kts | 275° |
| 2026-05-07 00:22 | 53.42377 | -6.28275 | 238 ft | 14 kts | 275° |
| 2026-05-07 00:22 | 53.42387 | -6.28441 | 240 ft | 13 kts | 276° |
| 2026-05-07 00:23 | 53.42396 | -6.28600 | 241 ft | 13 kts | 275° |
| 2026-05-07 00:23 | 53.42405 | -6.28759 | 243 ft | 13 kts | 276° |
| 2026-05-07 00:23 | 53.42414 | -6.28907 | 246 ft | 12 kts | 274° |
| 2026-05-07 00:23 | 53.42389 | -6.29028 | 248 ft | 10 kts | 230° |
| 2026-05-07 00:24 | 53.42320 | -6.29072 | 249 ft | 11 kts | 181° |
| 2026-05-07 00:24 | 53.42247 | -6.29009 | 246 ft | 14 kts | 108° |
| 2026-05-07 00:24 | 53.42227 | -6.28710 | 242 ft | 57 kts | 96° |
| 2026-05-07 00:24 | 53.42163 | -6.27602 | 231 ft | 131 kts | 97° |
| 2026-05-07 00:25 | 53.42065 | -6.25843 | 562 ft | 160 kts | 96° |
| 2026-05-07 00:25 | 53.41953 | -6.23893 | 1042 ft | 182 kts | 97° |
| 2026-05-07 00:25 | 53.41828 | -6.21631 | 1570 ft | 206 kts | 96° |
| 2026-05-07 00:25 | 53.41716 | -6.19119 | 2138 ft | 231 kts | 95° |
| 2026-05-07 00:26 | 53.41572 | -6.16363 | 2911 ft | 247 kts | 97° |
| 2026-05-07 00:26 | 53.41395 | -6.13443 | 3721 ft | 261 kts | 97° |
| 2026-05-07 00:26 | 53.41215 | -6.10428 | 4719 ft | 267 kts | 96° |
| 2026-05-07 00:26 | 53.41034 | -6.07316 | 5736 ft | 273 kts | 96° |
| 2026-05-07 00:27 | 53.40809 | -6.04176 | 6716 ft | 279 kts | 104° |
| 2026-05-07 00:27 | 53.39931 | -6.01349 | 7662 ft | 282 kts | 135° |
| 2026-05-07 00:27 | 53.38316 | -5.99558 | 8405 ft | 283 kts | 163° |
| 2026-05-07 00:27 | 53.36374 | -5.99246 | 8872 ft | 281 kts | 189° |
| 2026-05-07 00:28 | 53.34462 | -5.99849 | 8985 ft | 281 kts | 193° |
| 2026-05-07 00:28 | 53.32553 | -6.00499 | 8985 ft | 281 kts | 193° |
| 2026-05-07 00:28 | 53.30633 | -6.01117 | 8991 ft | 281 kts | 192° |
| 2026-05-07 00:28 | 53.28721 | -6.01774 | 8981 ft | 281 kts | 195° |
| 2026-05-07 00:29 | 53.26831 | -6.02666 | 9107 ft | 287 kts | 198° |
| 2026-05-07 00:29 | 53.24905 | -6.03649 | 9956 ft | 292 kts | 199° |
| 2026-05-07 00:30 | 53.18820 | -6.06393 | 12004 ft | 330 kts | 192° |
| 2026-05-07 00:30 | 53.16479 | -6.06919 | 12480 ft | 350 kts | 188° |
| 2026-05-07 00:30 | 53.14049 | -6.07319 | 13070 ft | 361 kts | 186° |
| 2026-05-07 00:30 | 53.11520 | -6.07320 | 13927 ft | 367 kts | 178° |
| 2026-05-07 00:31 | 53.08981 | -6.06715 | 14772 ft | 373 kts | 169° |
| 2026-05-07 00:31 | 53.06482 | -6.05654 | 15537 ft | 378 kts | 166° |
| 2026-05-07 00:31 | 53.03931 | -6.04473 | 16296 ft | 383 kts | 166° |
| 2026-05-07 00:31 | 53.01359 | -6.03270 | 17017 ft | 387 kts | 166° |
| 2026-05-07 00:32 | 52.98786 | -6.02072 | 17725 ft | 391 kts | 166° |
| 2026-05-07 00:32 | 52.96155 | -6.00860 | 18426 ft | 395 kts | 166° |
| 2026-05-07 00:32 | 52.93499 | -5.99644 | 19085 ft | 400 kts | 166° |
| 2026-05-07 00:32 | 52.90799 | -5.98415 | 19712 ft | 405 kts | 166° |
| 2026-05-07 00:33 | 52.88102 | -5.97192 | 20318 ft | 410 kts | 166° |
| 2026-05-07 00:33 | 52.85329 | -5.95936 | 20912 ft | 415 kts | 166° |
| 2026-05-07 00:33 | 52.82552 | -5.94682 | 21509 ft | 419 kts | 166° |
| 2026-05-07 00:33 | 52.79746 | -5.93417 | 22100 ft | 423 kts | 166° |
| 2026-05-07 00:34 | 52.76886 | -5.92128 | 22658 ft | 427 kts | 166° |
| 2026-05-07 00:34 | 52.74018 | -5.90838 | 22956 ft | 429 kts | 166° |
| 2026-05-07 00:34 | 52.71139 | -5.89543 | 22980 ft | 429 kts | 166° |
| 2026-05-07 00:34 | 52.68254 | -5.88248 | 23095 ft | 434 kts | 166° |
| 2026-05-07 00:35 | 52.65353 | -5.86949 | 23659 ft | 436 kts | 166° |
| 2026-05-07 00:35 | 52.62430 | -5.85642 | 24292 ft | 437 kts | 166° |
| 2026-05-07 00:35 | 52.59509 | -5.84340 | 24811 ft | 441 kts | 166° |
| 2026-05-07 00:35 | 52.56532 | -5.83014 | 25292 ft | 445 kts | 165° |
| 2026-05-07 00:36 | 52.53565 | -5.81694 | 25766 ft | 449 kts | 165° |
| 2026-05-07 00:36 | 52.50538 | -5.80346 | 26229 ft | 452 kts | 165° |
| 2026-05-07 00:36 | 52.47487 | -5.78991 | 26676 ft | 455 kts | 165° |
| 2026-05-07 00:36 | 52.44439 | -5.77638 | 27106 ft | 459 kts | 165° |
| 2026-05-07 00:37 | 52.41356 | -5.76273 | 27528 ft | 461 kts | 165° |
| 2026-05-07 00:37 | 52.38252 | -5.74871 | 27922 ft | 465 kts | 164° |
| 2026-05-07 00:37 | 52.35171 | -5.73380 | 28308 ft | 468 kts | 163° |
| 2026-05-07 00:37 | 52.32048 | -5.71839 | 28677 ft | 470 kts | 163° |
| 2026-05-07 00:38 | 52.28910 | -5.70298 | 29034 ft | 473 kts | 163° |
| 2026-05-07 00:38 | 52.25767 | -5.68788 | 29501 ft | 472 kts | 164° |
| 2026-05-07 00:38 | 52.22587 | -5.67507 | 30024 ft | 471 kts | 168° |
| 2026-05-07 00:38 | 52.19395 | -5.66446 | 30521 ft | 469 kts | 167° |
| 2026-05-07 00:39 | 52.16294 | -5.65091 | 30976 ft | 468 kts | 162° |
| 2026-05-07 00:39 | 52.13224 | -5.63272 | 31419 ft | 467 kts | 156° |
| 2026-05-07 00:39 | 52.10315 | -5.61052 | 31829 ft | 466 kts | 151° |
| 2026-05-07 00:39 | 52.07513 | -5.58409 | 32236 ft | 465 kts | 147° |
| 2026-05-07 00:40 | 52.04773 | -5.55639 | 32631 ft | 464 kts | 148° |
| 2026-05-07 00:40 | 52.02002 | -5.53035 | 32997 ft | 464 kts | 150° |
| 2026-05-07 00:40 | 51.99157 | -5.50665 | 33341 ft | 464 kts | 153° |
| 2026-05-07 00:40 | 51.96251 | -5.48336 | 33644 ft | 465 kts | 153° |
| 2026-05-07 00:41 | 51.93371 | -5.46044 | 33892 ft | 466 kts | 153° |
| 2026-05-07 00:41 | 51.90468 | -5.43746 | 34139 ft | 468 kts | 153° |
| 2026-05-07 00:41 | 51.87534 | -5.41432 | 34387 ft | 468 kts | 153° |
| 2026-05-07 00:41 | 51.84627 | -5.39148 | 34614 ft | 469 kts | 153° |
| 2026-05-07 00:42 | 51.81679 | -5.36837 | 34846 ft | 470 kts | 154° |
| 2026-05-07 00:42 | 51.78773 | -5.34562 | 34965 ft | 472 kts | 154° |
| 2026-05-07 00:42 | 51.73137 | -5.29180 | 34976 ft | 472 kts | 140° |
| 2026-05-07 00:43 | 51.68824 | -5.21324 | 34981 ft | 471 kts | 122° |
| 2026-05-07 00:43 | 51.65975 | -5.11857 | 34983 ft | 471 kts | 111° |
| 2026-05-07 00:44 | 51.63493 | -5.02167 | 34981 ft | 471 kts | 111° |
| 2026-05-07 00:44 | 51.61003 | -4.92471 | 34982 ft | 470 kts | 111° |
| 2026-05-07 00:45 | 51.58495 | -4.82800 | 34984 ft | 470 kts | 112° |
| 2026-05-07 00:45 | 51.55984 | -4.73180 | 34984 ft | 471 kts | 112° |
| 2026-05-07 00:46 | 51.53448 | -4.63518 | 34984 ft | 472 kts | 112° |
| 2026-05-07 00:46 | 51.50902 | -4.53858 | 34990 ft | 472 kts | 112° |
| 2026-05-07 00:47 | 51.48350 | -4.44211 | 34990 ft | 472 kts | 112° |
| 2026-05-07 00:47 | 51.45768 | -4.34497 | 34989 ft | 472 kts | 113° |
| 2026-05-07 00:48 | 51.43199 | -4.24874 | 34984 ft | 472 kts | 113° |
| 2026-05-07 00:48 | 51.40631 | -4.15234 | 34987 ft | 472 kts | 111° |
| 2026-05-07 00:49 | 51.38635 | -4.05310 | 34984 ft | 472 kts | 102° |
| 2026-05-07 00:49 | 51.37472 | -3.95019 | 34988 ft | 472 kts | 99° |
| 2026-05-07 00:50 | 51.36375 | -3.84747 | 34986 ft | 472 kts | 99° |
| 2026-05-07 00:50 | 51.35234 | -3.74420 | 34986 ft | 471 kts | 99° |
| 2026-05-07 00:51 | 51.34072 | -3.64129 | 34988 ft | 471 kts | 99° |
| 2026-05-07 00:51 | 51.32896 | -3.53838 | 34989 ft | 472 kts | 99° |
| 2026-05-07 00:52 | 51.31716 | -3.43606 | 34989 ft | 472 kts | 100° |
| 2026-05-07 00:52 | 51.30515 | -3.33300 | 34987 ft | 471 kts | 101° |
| 2026-05-07 00:53 | 51.29316 | -3.23078 | 34986 ft | 471 kts | 101° |
| 2026-05-07 00:53 | 51.28103 | -3.12829 | 34987 ft | 471 kts | 101° |
| 2026-05-07 00:54 | 51.26881 | -3.02580 | 34985 ft | 471 kts | 101° |
| 2026-05-07 00:54 | 51.25648 | -2.92311 | 34991 ft | 471 kts | 101° |
| 2026-05-07 00:55 | 51.24412 | -2.82098 | 34985 ft | 471 kts | 101° |
| 2026-05-07 00:55 | 51.23164 | -2.71886 | 34987 ft | 471 kts | 101° |
| 2026-05-07 00:56 | 51.22539 | -2.66792 | 34591 ft | 473 kts | 101° |
| 2026-05-07 00:56 | 51.21906 | -2.61650 | 33862 ft | 473 kts | 101° |
| 2026-05-07 00:56 | 51.21272 | -2.56519 | 33070 ft | 473 kts | 101° |
| 2026-05-07 00:56 | 51.20641 | -2.51423 | 32264 ft | 473 kts | 101° |
| 2026-05-07 00:57 | 51.20010 | -2.46358 | 31451 ft | 473 kts | 101° |
| 2026-05-07 00:57 | 51.19370 | -2.41242 | 30583 ft | 473 kts | 101° |
| 2026-05-07 00:57 | 51.18724 | -2.36097 | 29710 ft | 473 kts | 101° |
| 2026-05-07 00:57 | 51.18079 | -2.30974 | 28837 ft | 472 kts | 101° |
| 2026-05-07 00:58 | 51.17435 | -2.25881 | 28130 ft | 467 kts | 101° |
| 2026-05-07 00:58 | 51.16801 | -2.20885 | 27626 ft | 462 kts | 101° |
| 2026-05-07 00:58 | 51.16165 | -2.15889 | 27092 ft | 459 kts | 101° |
| 2026-05-07 00:58 | 51.15535 | -2.10965 | 26555 ft | 455 kts | 101° |
| 2026-05-07 00:59 | 51.14593 | -2.01206 | 25226 ft | 449 kts | 86° |
| 2026-05-07 00:59 | 51.15121 | -1.96314 | 24129 ft | 452 kts | 75° |
| 2026-05-07 00:59 | 51.15958 | -1.91562 | 23306 ft | 450 kts | 72° |
| 2026-05-07 01:00 | 51.16821 | -1.86809 | 22610 ft | 445 kts | 73° |
| 2026-05-07 01:00 | 51.17638 | -1.82087 | 21933 ft | 440 kts | 74° |
| 2026-05-07 01:00 | 51.18402 | -1.77411 | 21252 ft | 435 kts | 75° |
| 2026-05-07 01:00 | 51.19123 | -1.72820 | 20579 ft | 430 kts | 75° |
| 2026-05-07 01:01 | 51.19825 | -1.68215 | 19898 ft | 426 kts | 75° |
| 2026-05-07 01:01 | 51.20509 | -1.63654 | 19222 ft | 421 kts | 75° |
| 2026-05-07 01:01 | 51.21176 | -1.59157 | 18534 ft | 417 kts | 75° |
| 2026-05-07 01:01 | 51.21836 | -1.54680 | 17844 ft | 413 kts | 75° |
| 2026-05-07 01:02 | 51.22479 | -1.50294 | 17185 ft | 409 kts | 75° |
| 2026-05-07 01:02 | 51.23116 | -1.45932 | 16530 ft | 405 kts | 75° |
| 2026-05-07 01:02 | 51.23747 | -1.41602 | 15893 ft | 400 kts | 75° |
| 2026-05-07 01:02 | 51.24372 | -1.37294 | 15252 ft | 396 kts | 75° |
| 2026-05-07 01:03 | 51.24979 | -1.33094 | 14628 ft | 391 kts | 76° |
| 2026-05-07 01:03 | 51.25584 | -1.28900 | 13992 ft | 387 kts | 76° |
| 2026-05-07 01:03 | 51.26203 | -1.24746 | 13346 ft | 383 kts | 72° |
| 2026-05-07 01:03 | 51.27308 | -1.21009 | 12675 ft | 377 kts | 55° |
| 2026-05-07 01:04 | 51.28842 | -1.17634 | 12062 ft | 372 kts | 51° |
| 2026-05-07 01:04 | 51.30387 | -1.14409 | 11432 ft | 369 kts | 51° |
| 2026-05-07 01:04 | 51.31913 | -1.11148 | 10809 ft | 365 kts | 52° |
| 2026-05-07 01:04 | 51.33393 | -1.07892 | 10258 ft | 360 kts | 53° |
| 2026-05-07 01:05 | 51.34832 | -1.04659 | 9737 ft | 354 kts | 53° |
| 2026-05-07 01:05 | 51.36221 | -1.01499 | 9232 ft | 348 kts | 53° |
| 2026-05-07 01:05 | 51.37593 | -0.98348 | 8730 ft | 342 kts | 53° |
| 2026-05-07 01:05 | 51.38939 | -0.95244 | 8241 ft | 336 kts | 54° |
| 2026-05-07 01:06 | 51.40243 | -0.92228 | 7777 ft | 330 kts | 54° |
| 2026-05-07 01:06 | 51.41537 | -0.89231 | 7305 ft | 325 kts | 54° |
| 2026-05-07 01:06 | 51.42815 | -0.86267 | 6846 ft | 319 kts | 54° |
| 2026-05-07 01:06 | 51.44045 | -0.83408 | 6437 ft | 313 kts | 54° |
| 2026-05-07 01:07 | 51.45269 | -0.80563 | 6058 ft | 306 kts | 54° |
| 2026-05-07 01:07 | 51.46457 | -0.77797 | 5695 ft | 299 kts | 54° |
| 2026-05-07 01:07 | 51.47570 | -0.75044 | 5338 ft | 293 kts | 63° |
| 2026-05-07 01:07 | 51.48037 | -0.71922 | 5004 ft | 289 kts | 89° |
| 2026-05-07 01:08 | 51.47854 | -0.68761 | 4700 ft | 283 kts | 95° |
| 2026-05-07 01:08 | 51.47699 | -0.65732 | 4222 ft | 271 kts | 89° |
| 2026-05-07 01:08 | 51.47701 | -0.62763 | 3641 ft | 262 kts | 86° |
| 2026-05-07 01:08 | 51.47731 | -0.59959 | 3367 ft | 237 kts | 87° |
| 2026-05-07 01:09 | 51.47736 | -0.57428 | 3232 ft | 219 kts | 87° |
| 2026-05-07 01:09 | 51.47734 | -0.55105 | 3098 ft | 197 kts | 87° |
| 2026-05-07 01:09 | 51.47712 | -0.52918 | 2349 ft | 210 kts | 88° |
| 2026-05-07 01:09 | 51.47684 | -0.50533 | 1738 ft | 205 kts | 88° |
| 2026-05-07 01:10 | 51.47644 | -0.48479 | 1914 ft | 181 kts | 86° |
| 2026-05-07 01:10 | 51.47647 | -0.46431 | 2011 ft | 178 kts | 86° |
| 2026-05-07 01:10 | 51.47620 | -0.44463 | 2099 ft | 179 kts | 88° |
| 2026-05-07 01:10 | 51.47649 | -0.42477 | 2130 ft | 176 kts | 72° |
| 2026-05-07 01:11 | 51.48327 | -0.40948 | 2185 ft | 170 kts | 30° |
| 2026-05-07 01:11 | 51.49466 | -0.40488 | 2354 ft | 172 kts | 5° |
| 2026-05-07 01:11 | 51.50658 | -0.40447 | 2508 ft | 173 kts | 1° |
| 2026-05-07 01:11 | 51.51858 | -0.40497 | 2656 ft | 174 kts | 354° |
| 2026-05-07 01:12 | 51.52943 | -0.41370 | 2786 ft | 182 kts | 315° |
| 2026-05-07 01:12 | 51.53437 | -0.43263 | 2935 ft | 190 kts | 280° |
| 2026-05-07 01:12 | 51.53474 | -0.45371 | 2950 ft | 191 kts | 272° |
| 2026-05-07 01:12 | 51.53428 | -0.47495 | 2949 ft | 190 kts | 271° |
| 2026-05-07 01:13 | 51.53368 | -0.49605 | 2948 ft | 190 kts | 270° |
| 2026-05-07 01:13 | 51.53303 | -0.51746 | 2946 ft | 190 kts | 270° |
| 2026-05-07 01:13 | 51.53239 | -0.53866 | 2947 ft | 190 kts | 270° |
| 2026-05-07 01:13 | 51.53176 | -0.55973 | 2948 ft | 191 kts | 270° |
| 2026-05-07 01:14 | 51.53113 | -0.58085 | 2947 ft | 191 kts | 270° |
| 2026-05-07 01:14 | 51.53050 | -0.60223 | 2947 ft | 191 kts | 270° |
| 2026-05-07 01:14 | 51.52987 | -0.62360 | 2946 ft | 191 kts | 270° |
| 2026-05-07 01:14 | 51.52927 | -0.64467 | 2937 ft | 186 kts | 271° |
| 2026-05-07 01:15 | 51.52865 | -0.66514 | 2844 ft | 181 kts | 271° |
| 2026-05-07 01:15 | 51.52802 | -0.68538 | 2723 ft | 181 kts | 271° |
| 2026-05-07 01:15 | 51.52736 | -0.70551 | 2597 ft | 181 kts | 271° |
| 2026-05-07 01:15 | 51.52600 | -0.72546 | 2466 ft | 183 kts | 255° |
| 2026-05-07 01:16 | 51.51828 | -0.74146 | 2443 ft | 188 kts | 212° |
| 2026-05-07 01:16 | 51.50577 | -0.74720 | 2460 ft | 188 kts | 185° |
| 2026-05-07 01:16 | 51.49274 | -0.74869 | 2453 ft | 187 kts | 181° |
| 2026-05-07 01:16 | 51.47980 | -0.74961 | 2446 ft | 181 kts | 181° |
| 2026-05-07 01:17 | 51.46762 | -0.74990 | 2440 ft | 172 kts | 170° |
| 2026-05-07 01:17 | 51.45773 | -0.74150 | 2414 ft | 157 kts | 123° |
| 2026-05-07 01:17 | 51.45512 | -0.72611 | 2419 ft | 140 kts | 78° |
| 2026-05-07 01:17 | 51.45762 | -0.71111 | 2448 ft | 138 kts | 67° |
| 2026-05-07 01:18 | 51.46086 | -0.69660 | 2446 ft | 138 kts | 66° |
| 2026-05-07 01:18 | 51.46417 | -0.68230 | 2445 ft | 138 kts | 66° |
| 2026-05-07 01:18 | 51.46752 | -0.66783 | 2317 ft | 138 kts | 66° |
| 2026-05-07 01:18 | 51.47083 | -0.65351 | 2136 ft | 136 kts | 66° |
| 2026-05-07 01:19 | 51.47354 | -0.63892 | 1959 ft | 137 kts | 72° |
| 2026-05-07 01:19 | 51.47519 | -0.62394 | 1783 ft | 136 kts | 77° |
| 2026-05-07 01:19 | 51.47618 | -0.60901 | 1623 ft | 135 kts | 79° |
| 2026-05-07 01:19 | 51.47697 | -0.59414 | 1438 ft | 133 kts | 81° |
| 2026-05-07 01:20 | 51.47729 | -0.57930 | 1262 ft | 132 kts | 84° |
| 2026-05-07 01:20 | 51.47736 | -0.56461 | 1084 ft | 132 kts | 85° |
| 2026-05-07 01:20 | 51.47736 | -0.54988 | 903 ft | 132 kts | 85° |
| 2026-05-07 01:20 | 51.47738 | -0.53540 | 736 ft | 131 kts | 86° |
| 2026-05-07 01:21 | 51.47741 | -0.52070 | 553 ft | 131 kts | 85° |
| 2026-05-07 01:21 | 51.47740 | -0.50613 | 373 ft | 130 kts | 86° |
| 2026-05-07 01:21 | 51.47751 | -0.49165 | 198 ft | 128 kts | 85° |
| 2026-05-07 01:21 | 51.47760 | -0.47758 | 107 ft | 123 kts | 89° |
| 2026-05-07 01:22 | 51.47759 | -0.46551 | 92 ft | 82 kts | 90° |
| 2026-05-07 01:22 | 51.47742 | -0.46211 | 91 ft | 13 kts | 114° |
| 2026-05-07 01:22 | 51.47674 | -0.46113 | 91 ft | 1 kts | 148° |
| 2026-05-07 01:22 | 51.47665 | -0.46105 | 91 ft | 2 kts | 150° |
| 2026-05-07 01:23 | 51.47628 | -0.46080 | 91 ft | 12 kts | 172° |
| 2026-05-07 01:23 | 51.47591 | -0.46189 | 91 ft | 13 kts | 268° |
| 2026-05-07 01:23 | 51.47591 | -0.46347 | 91 ft | 14 kts | 267° |
| 2026-05-07 01:23 | 51.47589 | -0.46518 | 91 ft | 15 kts | 269° |
| 2026-05-07 01:24 | 51.47591 | -0.46700 | 91 ft | 16 kts | 265° |
| 2026-05-07 01:24 | 51.47572 | -0.46884 | 91 ft | 17 kts | 232° |
| 2026-05-07 01:24 | 51.47493 | -0.47017 | 91 ft | 17 kts | 257° |
| 2026-05-07 01:24 | 51.47493 | -0.47205 | 91 ft | 17 kts | 271° |
| 2026-05-07 01:25 | 51.47489 | -0.47401 | 91 ft | 17 kts | 270° |
| 2026-05-07 01:25 | 51.47493 | -0.47602 | 91 ft | 18 kts | 272° |
| 2026-05-07 01:25 | 51.47487 | -0.47795 | 91 ft | 15 kts | 257° |
| 2026-05-07 01:25 | 51.47399 | -0.47873 | 91 ft | 15 kts | 179° |
| 2026-05-07 01:26 | 51.47307 | -0.47871 | 91 ft | 11 kts | 180° |
| 2026-05-07 01:26 | 51.47250 | -0.47901 | 91 ft | 7 kts | 221° |
| 2026-05-07 01:26 | 51.47234 | -0.47956 | 91 ft | 2 kts | 261° |
| 2026-05-07 01:26 | 51.47232 | -0.47992 | 91 ft | 4 kts | 268° |
| 2026-05-07 01:27 | 51.47232 | -0.48040 | 91 ft | 0 kts | 270° |